Time;durP1;ratioP1;P1;durP2;ratioP2;P2;SDS_P1;SDS_P2;PMS_P1;PMS_P2;Temp;Humidity;BMP_temperature;BMP_pressure;BME280_temperature;BME280_humidity;BME280_pressure;Samples;Min_cycle;Max_cycle;Signal;HPM_P1;HPM_P2
2024/01/18 06:01:50;;;;;;;2.75;0.80;;;9.30;94.40;;;;;;4240751;23;20126;-78
2024/01/18 06:03:52;;;;;;;2.50;0.90;;;9.30;94.50;;;;;;4101256;28;20051;-78
2024/01/18 06:05:58;;;;;;;2.60;0.73;;;9.30;94.60;;;;;;4100866;29;20047;-77
2024/01/18 06:07:59;;;;;;;2.80;0.80;;;9.30;94.70;;;;;;4101363;29;20055;-79
2024/01/18 06:10:03;;;;;;;2.30;0.70;;;9.40;94.70;;;;;;4100932;29;20043;-75
2024/01/18 06:12:06;;;;;;;4.13;0.70;;;9.40;94.70;;;;;;4100957;29;20125;-78
2024/01/18 06:14:08;;;;;;;1.63;0.52;;;9.30;94.80;;;;;;4101323;29;20086;-78
2024/01/18 06:16:10;;;;;;;2.33;0.60;;;9.40;94.90;;;;;;4101270;29;20047;-79
2024/01/18 06:18:14;;;;;;;2.60;0.70;;;9.30;94.90;;;;;;4101055;29;20142;-78
2024/01/18 06:20:16;;;;;;;1.15;0.45;;;9.30;94.80;;;;;;4101189;29;20481;-78
2024/01/18 06:22:18;;;;;;;2.75;0.68;;;9.40;94.90;;;;;;4101183;29;20448;-80
2024/01/18 06:24:20;;;;;;;3.78;0.60;;;9.30;94.90;;;;;;4101235;29;20105;-79
2024/01/18 06:26:21;;;;;;;4.03;0.63;;;9.30;94.80;;;;;;4101046;29;20047;-80
2024/01/18 06:28:23;;;;;;;2.13;0.60;;;9.30;94.90;;;;;;4100853;29;20476;-80
2024/01/18 06:30:25;;;;;;;5.53;0.70;;;9.30;94.90;;;;;;4100735;29;20047;-78
2024/01/18 06:32:27;;;;;;;1.63;0.45;;;9.30;94.80;;;;;;4100643;29;20051;-77
2024/01/18 06:34:30;;;;;;;1.23;0.38;;;9.30;94.80;;;;;;4100902;29;20708;-78
2024/01/18 06:36:32;;;;;;;3.33;0.85;;;9.30;94.70;;;;;;4100723;29;20102;-79
2024/01/18 06:38:34;;;;;;;1.92;0.60;;;9.30;94.70;;;;;;4100580;29;20139;-78
2024/01/18 06:40:36;;;;;;;1.42;0.43;;;9.30;94.70;;;;;;4100867;29;20135;-79
2024/01/18 06:42:37;;;;;;;1.27;0.40;;;9.30;94.70;;;;;;4100881;29;20486;-78
2024/01/18 06:44:39;;;;;;;2.17;0.57;;;9.30;94.60;;;;;;4100718;29;20094;-80
2024/01/18 06:46:41;;;;;;;2.25;0.60;;;9.30;94.70;;;;;;4100773;29;20047;-80
2024/01/18 06:48:44;;;;;;;3.95;0.60;;;9.30;94.50;;;;;;4100886;29;20047;-78
2024/01/18 06:50:48;;;;;;;2.25;0.70;;;9.30;94.50;;;;;;4100647;29;20043;-78
2024/01/18 06:52:51;;;;;;;1.63;0.57;;;9.30;94.60;;;;;;4100529;29;20055;-79
2024/01/18 06:54:53;;;;;;;2.83;1.10;;;9.30;94.80;;;;;;4100766;29;20555;-78
2024/01/18 06:56:55;;;;;;;2.67;1.02;;;9.20;94.80;;;;;;4100782;29;20079;-79
2024/01/18 06:58:57;;;;;;;3.40;1.25;;;9.20;94.90;;;;;;4100763;29;20052;-79
2024/01/18 07:00:58;;;;;;;5.45;1.60;;;9.20;94.90;;;;;;4100559;29;20568;-79
2024/01/18 07:02:59;;;;;;;4.72;1.95;;;9.20;94.70;;;;;;4100744;29;20052;-76
2024/01/18 07:05:00;;;;;;;5.80;2.20;;;9.20;94.50;;;;;;4100718;29;20382;-78
2024/01/18 07:07:04;;;;;;;4.68;2.30;;;9.20;94.40;;;;;;4100354;29;20106;-78
2024/01/18 07:09:07;;;;;;;7.47;2.90;;;9.10;94.40;;;;;;4100698;29;20400;-77
2024/01/18 07:11:08;;;;;;;7.15;3.58;;;9.10;94.50;;;;;;4100613;29;20477;-76
2024/01/18 07:13:10;;;;;;;6.80;3.50;;;9.10;94.50;;;;;;4100221;29;20051;-79
2024/01/18 07:15:12;;;;;;;6.95;3.45;;;9.00;94.50;;;;;;4100369;28;20516;-79
2024/01/18 07:17:14;;;;;;;6.93;3.40;;;9.00;94.70;;;;;;4099945;29;20102;-78
2024/01/18 07:19:16;;;;;;;7.35;3.40;;;9.00;94.60;;;;;;4100363;29;20105;-79
2024/01/18 07:21:18;;;;;;;8.32;3.58;;;9.00;94.80;;;;;;4100387;29;20055;-78
2024/01/18 07:23:21;;;;;;;8.32;3.80;;;8.90;95.10;;;;;;4100244;29;20449;-79
2024/01/18 07:25:22;;;;;;;7.63;3.30;;;8.90;95.10;;;;;;4100312;29;20560;-79
2024/01/18 07:27:24;;;;;;;10.55;6.00;;;8.90;94.90;;;;;;4100269;29;20050;-78
2024/01/18 07:29:26;;;;;;;17.65;9.40;;;8.90;94.60;;;;;;4100186;29;20047;-79
2024/01/18 07:31:28;;;;;;;20.83;11.88;;;8.90;94.10;;;;;;4100227;29;20456;-79
2024/01/18 07:33:30;;;;;;;15.02;8.32;;;8.80;93.60;;;;;;4100035;29;20106;-77
2024/01/18 07:35:32;;;;;;;14.75;7.30;;;8.70;92.80;;;;;;4100115;29;20094;-80
2024/01/18 07:37:34;;;;;;;16.98;9.50;;;8.70;92.30;;;;;;4100588;29;20051;-79
2024/01/18 07:39:37;;;;;;;12.70;7.80;;;8.50;92.10;;;;;;4100229;29;20043;-77
2024/01/18 07:41:39;;;;;;;9.75;6.38;;;8.40;92.10;;;;;;4100107;29;20106;-79
2024/01/18 07:43:41;;;;;;;8.00;5.60;;;8.40;92.10;;;;;;4100158;29;20051;-79
2024/01/18 07:45:43;;;;;;;8.93;5.45;;;8.30;92.00;;;;;;4100144;29;20102;-78
2024/01/18 07:47:45;;;;;;;9.05;5.35;;;8.30;91.90;;;;;;4100193;29;20052;-78
2024/01/18 07:49:47;;;;;;;9.05;4.78;;;8.20;91.80;;;;;;4100077;29;20051;-79
2024/01/18 07:51:50;;;;;;;7.00;4.72;;;8.10;91.80;;;;;;4099965;29;20090;-78
2024/01/18 07:53:52;;;;;;;7.65;4.43;;;8.10;91.80;;;;;;4100111;29;20138;-78
2024/01/18 07:55:54;;;;;;;8.05;4.80;;;8.00;91.40;;;;;;4100169;29;20094;-79
2024/01/18 07:57:56;;;;;;;6.93;4.28;;;7.90;91.50;;;;;;4100168;29;20480;-78
2024/01/18 07:59:58;;;;;;;8.07;4.32;;;7.90;91.40;;;;;;4100130;29;20110;-80
2024/01/18 08:02:00;;;;;;;6.55;4.20;;;7.90;91.40;;;;;;4099766;29;20393;-78
2024/01/18 08:04:01;;;;;;;25.30;14.43;;;7.80;91.50;;;;;;4099931;29;20102;-77
2024/01/18 08:06:03;;;;;;;15.43;7.68;;;7.80;91.30;;;;;;4100221;29;20365;-79
2024/01/18 08:08:05;;;;;;;19.17;10.50;;;7.80;91.10;;;;;;4099859;29;20043;-78
2024/01/18 08:10:08;;;;;;;13.63;7.85;;;7.70;91.10;;;;;;4099965;29;20071;-79
2024/01/18 08:12:12;;;;;;;12.25;6.97;;;7.70;91.30;;;;;;4100012;29;20084;-78
2024/01/18 08:14:14;;;;;;;15.07;8.40;;;7.60;91.30;;;;;;4100108;29;20110;-78
2024/01/18 08:16:15;;;;;;;10.82;6.13;;;7.60;91.20;;;;;;4100142;29;20094;-79
2024/01/18 08:18:17;;;;;;;7.93;4.25;;;7.60;91.20;;;;;;4100501;29;20047;-78
2024/01/18 08:20:19;;;;;;;7.00;3.60;;;7.60;91.30;;;;;;4100419;29;20058;-78
2024/01/18 08:22:21;;;;;;;6.72;4.07;;;7.60;91.20;;;;;;4100735;29;20098;-78
2024/01/18 08:24:22;;;;;;;5.95;3.50;;;7.50;91.30;;;;;;4103161;29;20106;-79
2024/01/18 08:26:23;;;;;;;6.70;3.75;;;7.50;91.40;;;;;;4105979;29;20094;-79
2024/01/18 08:28:27;;;;;;;5.90;3.47;;;7.50;91.40;;;;;;4108124;28;20055;-78
2024/01/18 08:30:27;;;;;;;6.07;3.22;;;7.50;91.50;;;;;;4108040;29;20047;-79
2024/01/18 08:32:33;;;;;;;6.53;3.58;;;7.50;91.30;;;;;;4108438;29;20047;-80
2024/01/18 08:34:35;;;;;;;5.97;3.60;;;7.50;91.40;;;;;;4108626;29;20381;-76
2024/01/18 08:36:37;;;;;;;5.43;3.20;;;7.40;91.40;;;;;;4103819;29;20071;-78
2024/01/18 08:38:39;;;;;;;5.82;2.78;;;7.30;91.30;;;;;;4102600;29;20072;-76
2024/01/18 08:40:40;;;;;;;5.20;2.92;;;7.20;91.30;;;;;;4102993;29;20047;-79
2024/01/18 08:42:44;;;;;;;5.32;3.10;;;7.20;91.50;;;;;;4102563;29;20102;-79
2024/01/18 08:44:47;;;;;;;5.88;3.00;;;7.10;91.50;;;;;;4102605;29;20057;-78
2024/01/18 08:46:49;;;;;;;4.78;2.80;;;7.20;91.50;;;;;;4102493;29;20047;-78
2024/01/18 08:48:51;;;;;;;4.85;2.83;;;7.20;91.50;;;;;;4102488;29;20051;-78
2024/01/18 08:50:52;;;;;;;4.75;2.60;;;7.10;91.30;;;;;;4102514;29;20548;-77
2024/01/18 08:52:54;;;;;;;6.40;3.30;;;7.10;91.20;;;;;;4104234;29;20111;-78
2024/01/18 08:54:56;;;;;;;6.38;2.90;;;7.10;91.30;;;;;;4102809;29;20051;-80
2024/01/18 08:56:58;;;;;;;8.88;2.80;;;7.10;91.30;;;;;;4102190;29;20051;-78
2024/01/18 08:58:59;;;;;;;16.27;9.63;;;7.10;91.30;;;;;;4102322;29;20051;-79
2024/01/18 09:01:03;;;;;;;10.38;5.38;;;7.10;91.30;;;;;;4102147;29;20386;-79
2024/01/18 09:03:05;;;;;;;11.15;6.32;;;7.10;91.40;;;;;;4102407;29;20471;-79
2024/01/18 09:05:07;;;;;;;7.72;3.72;;;7.10;91.20;;;;;;4101961;29;20449;-78
2024/01/18 09:07:09;;;;;;;5.13;3.38;;;7.10;91.30;;;;;;4102328;29;20059;-76
2024/01/18 09:09:11;;;;;;;4.93;2.80;;;7.10;91.30;;;;;;4102260;29;20054;-80
2024/01/18 09:11:13;;;;;;;6.45;3.35;;;7.10;91.40;;;;;;4102376;29;20055;-78
2024/01/18 09:13:15;;;;;;;6.18;3.50;;;7.10;91.40;;;;;;4102333;29;20058;-77
2024/01/18 09:15:17;;;;;;;7.28;3.55;;;7.00;91.40;;;;;;4102115;29;20051;-80
2024/01/18 09:17:20;;;;;;;7.45;3.78;;;7.00;91.40;;;;;;4102338;29;20146;-77
2024/01/18 09:19:22;;;;;;;6.38;4.15;;;7.00;91.50;;;;;;4102103;29;20413;-79
2024/01/18 09:21:24;;;;;;;6.72;4.07;;;6.90;91.30;;;;;;4101924;29;20059;-78
2024/01/18 09:23:26;;;;;;;7.25;4.00;;;6.90;91.30;;;;;;4102044;29;20408;-78
2024/01/18 09:25:28;;;;;;;8.15;4.65;;;6.90;91.30;;;;;;4101799;29;20043;-80
2024/01/18 09:27:29;;;;;;;6.40;4.18;;;6.80;91.30;;;;;;4101983;29;20093;-77
2024/01/18 09:29:30;;;;;;;8.52;4.63;;;6.80;91.30;;;;;;4101874;29;20043;-78
2024/01/18 09:31:32;;;;;;;7.38;4.63;;;6.70;91.60;;;;;;4101895;29;20047;-78
2024/01/18 09:33:34;;;;;;;12.02;6.88;;;6.70;91.60;;;;;;4101883;29;20404;-78
2024/01/18 09:35:36;;;;;;;11.45;6.75;;;6.60;91.30;;;;;;4101903;29;20613;-80
2024/01/18 09:37:38;;;;;;;8.00;4.35;;;6.60;91.00;;;;;;4101997;29;20503;-78
2024/01/18 09:39:41;;;;;;;8.48;4.78;;;6.50;91.00;;;;;;4101477;28;20090;-78
2024/01/18 09:41:43;;;;;;;5.95;3.33;;;6.50;91.00;;;;;;4101799;29;20047;-78
2024/01/18 09:43:47;;;;;;;5.05;3.03;;;6.40;90.80;;;;;;4101641;29;20449;-79
2024/01/18 09:45:49;;;;;;;4.88;2.92;;;6.40;91.30;;;;;;4101583;29;20043;-80
2024/01/18 09:47:53;;;;;;;4.63;2.80;;;6.30;90.80;;;;;;4101582;29;20047;-78
2024/01/18 09:49:59;;;;;;;4.47;2.60;;;6.20;90.90;;;;;;4101817;29;20519;-78
2024/01/18 09:52:01;;;;;;;4.30;2.53;;;6.10;90.20;;;;;;4101366;29;20051;-80
2024/01/18 09:54:03;;;;;;;4.75;2.72;;;6.00;90.40;;;;;;4101055;29;20101;-79
2024/01/18 09:56:18;;;;;;;6.97;2.70;;;5.90;90.10;;;;;;4101573;29;20109;-79
2024/01/18 09:58:20;;;;;;;4.80;2.50;;;5.90;90.10;;;;;;4101489;29;20047;-79
2024/01/18 10:00:27;;;;;;;5.40;2.78;;;5.80;90.20;;;;;;4101583;29;20071;-79
2024/01/18 10:02:29;;;;;;;4.57;2.38;;;5.60;90.20;;;;;;4101379;29;20109;-79
2024/01/18 10:04:32;;;;;;;4.65;2.67;;;5.40;90.50;;;;;;4101511;29;20055;-80
2024/01/18 10:06:35;;;;;;;4.60;2.20;;;5.50;90.80;;;;;;4101269;29;20058;-79
2024/01/18 10:08:37;;;;;;;5.07;2.25;;;5.40;90.50;;;;;;4101374;29;20102;-80
2024/01/18 10:10:39;;;;;;;4.38;2.00;;;5.40;90.60;;;;;;4101197;29;20051;-79
2024/01/18 10:12:42;;;;;;;4.28;1.88;;;5.30;90.40;;;;;;4101345;29;20043;-80
2024/01/18 10:14:45;;;;;;;3.47;1.75;;;5.20;90.20;;;;;;4100992;29;20401;-80
2024/01/18 10:16:46;;;;;;;3.33;1.48;;;5.10;90.50;;;;;;4101267;29;20457;-79
2024/01/18 10:18:47;;;;;;;3.60;1.80;;;5.10;90.40;;;;;;4101193;29;20099;-79
2024/01/18 10:20:50;;;;;;;3.78;1.40;;;5.10;90.80;;;;;;4098261;28;20473;-81
2024/01/18 10:22:55;;;;;;;17.98;9.23;;;5.20;90.60;;;;;;4099265;29;20046;-80
2024/01/18 10:24:57;;;;;;;9.18;4.65;;;5.20;90.50;;;;;;4099087;29;20147;-79
2024/01/18 10:27:06;;;;;;;3.15;1.55;;;5.20;90.40;;;;;;4099514;29;20114;-80
2024/01/18 10:29:09;;;;;;;3.45;1.30;;;5.10;89.90;;;;;;4100258;29;20380;-79
2024/01/18 10:31:11;;;;;;;2.47;1.10;;;4.90;90.10;;;;;;4098836;29;20517;-79
2024/01/18 10:33:12;;;;;;;3.38;1.05;;;4.80;89.90;;;;;;4096974;29;20118;-80
2024/01/18 10:35:25;;;;;;;2.90;1.30;;;4.80;90.10;;;;;;4098649;29;20055;-79
2024/01/18 10:37:27;;;;;;;2.20;0.90;;;4.70;90.00;;;;;;4098850;29;20492;-80
2024/01/18 10:39:40;;;;;;;3.08;1.10;;;4.50;89.70;;;;;;4098735;29;20054;-80
2024/01/18 10:41:42;;;;;;;3.88;1.35;;;4.40;89.80;;;;;;4098368;29;20133;-80
2024/01/18 10:43:43;;;;;;;3.08;1.30;;;4.40;90.70;;;;;;4098438;29;20063;-78
2024/01/18 10:45:46;;;;;;;1.63;0.80;;;4.40;90.20;;;;;;4098882;29;20050;-79
2024/01/18 10:47:47;;;;;;;4.15;1.33;;;4.30;90.40;;;;;;4098958;29;20059;-78
2024/01/18 10:49:51;;;;;;;1.95;1.00;;;4.30;90.40;;;;;;4098380;29;20050;-77
2024/01/18 10:51:54;;;;;;;2.15;0.95;;;4.10;90.20;;;;;;4098186;29;20370;-78
2024/01/18 10:53:58;;;;;;;2.22;0.90;;;4.10;90.70;;;;;;4098536;29;20055;-78
2024/01/18 10:56:02;;;;;;;2.13;0.95;;;4.20;90.60;;;;;;4098524;29;20059;-81
2024/01/18 10:58:07;;;;;;;2.03;0.98;;;4.10;90.40;;;;;;4098439;29;20059;-79
2024/01/18 11:00:15;;;;;;;2.05;0.90;;;4.10;90.50;;;;;;4098547;29;20074;-81
2024/01/18 11:02:17;;;;;;;2.33;0.90;;;4.20;90.50;;;;;;4098630;29;20412;-79
2024/01/18 11:04:19;;;;;;;1.92;0.82;;;4.20;90.60;;;;;;4098393;29;20055;-79
2024/01/18 11:06:22;;;;;;;2.03;0.90;;;4.10;90.50;;;;;;4097977;29;20067;-79
2024/01/18 11:08:24;;;;;;;2.20;0.80;;;4.20;90.50;;;;;;4098220;29;20050;-80
2024/01/18 11:10:26;;;;;;;1.83;0.80;;;4.00;89.50;;;;;;4098254;29;20047;-81
2024/01/18 11:12:28;;;;;;;2.58;1.00;;;4.10;90.20;;;;;;4098246;29;20460;-81
2024/01/18 11:14:31;;;;;;;1.98;0.80;;;3.80;90.30;;;;;;4098246;29;20138;-79
2024/01/18 11:16:33;;;;;;;2.55;0.95;;;3.70;90.80;;;;;;4097234;29;20051;-78
2024/01/18 11:18:35;;;;;;;1.98;0.77;;;3.70;90.60;;;;;;4097911;28;20576;-79
2024/01/18 11:21:04;;;;;;;2.40;1.00;;;3.60;90.60;;;;;;4082131;29;20055;-80
2024/01/18 11:23:07;;;;;;;1.88;0.80;;;3.60;90.80;;;;;;4082103;29;20062;-79
2024/01/18 11:25:11;;;;;;;1.73;0.75;;;3.50;90.40;;;;;;4082128;29;20051;-80
2024/01/18 11:27:20;;;;;;;2.55;1.10;;;3.30;90.90;;;;;;4089416;29;20623;-79
2024/01/18 11:29:25;;;;;;;2.15;1.00;;;3.10;91.40;;;;;;4098451;29;20118;-80
2024/01/18 11:31:46;;;;;;;2.17;0.93;;;3.20;91.80;;;;;;4096627;29;20436;-79
2024/01/18 11:33:47;;;;;;;2.50;1.10;;;3.40;91.40;;;;;;4082161;29;20083;-79
2024/01/18 11:35:50;;;;;;;2.30;0.90;;;3.30;91.40;;;;;;4082071;29;20056;-79
2024/01/18 11:37:52;;;;;;;2.30;0.90;;;3.20;91.60;;;;;;4086535;29;20512;-79
2024/01/18 11:39:54;;;;;;;2.80;1.13;;;3.30;91.70;;;;;;4098118;29;20051;-78
2024/01/18 11:41:59;;;;;;;3.67;1.60;;;3.30;91.80;;;;;;4098233;29;20078;-78
2024/01/18 11:44:09;;;;;;;2.90;1.15;;;3.40;91.70;;;;;;4100543;29;20055;-80
2024/01/18 11:46:14;;;;;;;2.42;1.13;;;3.50;91.40;;;;;;4104306;29;20153;-78
2024/01/18 11:48:16;;;;;;;3.38;1.10;;;3.40;91.50;;;;;;4102937;29;20047;-79
2024/01/18 11:50:18;;;;;;;2.78;1.35;;;3.30;91.70;;;;;;4104340;29;20043;-80
2024/01/18 11:52:22;;;;;;;3.58;1.20;;;3.10;91.70;;;;;;4102225;29;20055;-78
2024/01/18 11:54:25;;;;;;;2.40;1.00;;;3.10;92.10;;;;;;4101297;29;20067;-77
2024/01/18 11:56:28;;;;;;;3.10;1.13;;;3.20;92.10;;;;;;4096487;29;20043;-79
2024/01/18 11:58:29;;;;;;;2.60;1.20;;;3.30;91.80;;;;;;4098320;29;20079;-78
2024/01/18 12:00:31;;;;;;;2.97;1.50;;;3.30;92.00;;;;;;4097640;29;20051;-78
2024/01/18 12:02:34;;;;;;;2.42;1.15;;;3.30;92.00;;;;;;4099825;28;20055;-79
2024/01/18 12:04:35;;;;;;;2.88;1.20;;;3.30;91.90;;;;;;4100857;29;20053;-78
2024/01/18 12:06:37;;;;;;;2.75;1.27;;;3.20;92.00;;;;;;4100633;29;20051;-79
2024/01/18 12:08:40;;;;;;;2.60;1.27;;;3.20;91.70;;;;;;4100406;29;20051;-79
2024/01/18 12:10:42;;;;;;;4.25;1.40;;;3.20;91.90;;;;;;4100377;29;20118;-80
2024/01/18 12:12:44;;;;;;;3.10;1.45;;;3.20;91.80;;;;;;4100911;29;20402;-77
2024/01/18 12:14:48;;;;;;;2.70;1.30;;;3.10;91.90;;;;;;4100601;29;20091;-79
2024/01/18 12:16:50;;;;;;;3.05;1.30;;;3.20;92.10;;;;;;4100424;29;20134;-78
2024/01/18 12:18:53;;;;;;;2.78;1.42;;;3.20;92.00;;;;;;4100519;29;20126;-77
2024/01/18 12:20:55;;;;;;;3.50;1.70;;;3.30;91.80;;;;;;4100199;29;20063;-79
2024/01/18 12:22:57;;;;;;;3.70;1.52;;;3.30;91.70;;;;;;4100687;29;20047;-79
2024/01/18 12:24:59;;;;;;;3.20;1.70;;;3.30;91.60;;;;;;4100336;29;20047;-79
2024/01/18 12:27:02;;;;;;;3.60;1.88;;;3.20;91.80;;;;;;4100417;29;20055;-80
2024/01/18 12:29:03;;;;;;;5.60;2.00;;;3.20;91.80;;;;;;4100377;29;20051;-79
2024/01/18 12:31:05;;;;;;;3.88;1.88;;;3.20;92.00;;;;;;4100361;29;20066;-81
2024/01/18 12:33:07;;;;;;;4.82;2.28;;;3.10;92.00;;;;;;4098298;29;20058;-79
2024/01/18 12:35:11;;;;;;;3.45;1.85;;;3.00;92.20;;;;;;4100373;29;20094;-78
2024/01/18 12:37:12;;;;;;;4.20;2.10;;;2.90;92.20;;;;;;4099834;29;20090;-79
2024/01/18 12:39:16;;;;;;;3.47;2.10;;;3.00;91.90;;;;;;4100424;29;20115;-78
2024/01/18 12:41:18;;;;;;;5.05;2.10;;;2.90;91.90;;;;;;4100385;29;20047;-79
2024/01/18 12:43:20;;;;;;;3.33;1.80;;;3.00;91.90;;;;;;4099938;29;20077;-79
2024/01/18 12:45:22;;;;;;;3.72;2.08;;;3.10;92.10;;;;;;4100205;29;20098;-79
2024/01/18 12:47:24;;;;;;;4.43;2.22;;;3.00;91.90;;;;;;4100115;29;20051;-79
2024/01/18 12:49:26;;;;;;;3.47;1.92;;;3.00;91.90;;;;;;4100294;29;20051;-79
2024/01/18 12:51:30;;;;;;;3.72;2.15;;;3.00;91.60;;;;;;4100761;29;20115;-79
2024/01/18 12:53:32;;;;;;;4.20;2.25;;;2.80;91.70;;;;;;4101906;29;20047;-80
2024/01/18 12:55:35;;;;;;;4.65;2.20;;;2.80;92.10;;;;;;4101398;29;20055;-80
2024/01/18 12:57:37;;;;;;;3.78;2.10;;;2.90;91.90;;;;;;4101409;29;20081;-80
2024/01/18 12:59:39;;;;;;;3.33;2.03;;;3.00;91.60;;;;;;4101217;29;20047;-79
2024/01/18 13:01:41;;;;;;;4.75;2.42;;;2.90;91.70;;;;;;4100949;29;20055;-78
2024/01/18 13:03:43;;;;;;;3.78;2.33;;;3.00;91.60;;;;;;4101695;29;20461;-79
2024/01/18 13:05:46;;;;;;;4.20;2.40;;;2.90;91.70;;;;;;4101149;29;20055;-78
2024/01/18 13:07:49;;;;;;;4.50;2.42;;;2.90;91.50;;;;;;4099392;29;20106;-79
2024/01/18 13:09:51;;;;;;;5.43;3.13;;;2.90;91.50;;;;;;4099969;29;20118;-79
2024/01/18 13:11:53;;;;;;;5.13;3.10;;;2.80;91.90;;;;;;4099999;29;20055;-79
2024/01/18 13:13:59;;;;;;;5.57;3.20;;;2.70;92.10;;;;;;4099567;28;20576;-78
2024/01/18 13:16:01;;;;;;;4.47;2.67;;;2.40;93.00;;;;;;4099864;29;20059;-79
2024/01/18 13:18:03;;;;;;;4.00;2.65;;;2.40;92.70;;;;;;4100536;29;20055;-78
2024/01/18 13:20:10;;;;;;;4.78;3.00;;;2.50;92.80;;;;;;4099629;29;20069;-78
2024/01/18 13:22:12;;;;;;;5.65;3.10;;;2.40;92.50;;;;;;4099750;29;20515;-81
2024/01/18 13:24:16;;;;;;;4.60;2.50;;;2.20;93.30;;;;;;4095045;29;20110;-81
2024/01/18 13:26:18;;;;;;;5.00;3.20;;;2.40;92.90;;;;;;4084453;29;20111;-80
2024/01/18 13:28:21;;;;;;;5.60;3.22;;;2.40;92.60;;;;;;4083915;29;20679;-81
2024/01/18 13:30:22;;;;;;;5.45;3.38;;;2.30;92.70;;;;;;4083871;29;20521;-82
2024/01/18 13:32:24;;;;;;;6.43;3.45;;;2.30;93.00;;;;;;4081489;29;20044;-81
2024/01/18 13:34:25;;;;;;;5.63;3.65;;;2.40;92.80;;;;;;4086203;29;20126;-81
2024/01/18 13:36:27;;;;;;;7.55;4.10;;;2.30;92.90;;;;;;4099611;29;20547;-79
2024/01/18 13:38:29;;;;;;;7.03;4.57;;;2.10;92.70;;;;;;4099237;29;20055;-79
2024/01/18 13:40:32;;;;;;;5.95;4.15;;;2.00;93.10;;;;;;4099504;29;20547;-80
2024/01/18 13:42:34;;;;;;;6.78;3.90;;;2.10;92.90;;;;;;4099110;29;20043;-80
2024/01/18 13:44:36;;;;;;;5.70;4.00;;;2.10;92.70;;;;;;4098920;29;20114;-81
2024/01/18 13:46:38;;;;;;;6.65;4.50;;;2.00;92.80;;;;;;4099175;29;20047;-78
2024/01/18 13:48:42;;;;;;;7.00;4.85;;;1.80;93.20;;;;;;4099310;29;20478;-79
2024/01/18 13:50:44;;;;;;;6.72;4.43;;;1.70;93.60;;;;;;4099155;29;20058;-78
2024/01/18 13:52:45;;;;;;;5.95;4.30;;;1.80;93.50;;;;;;4099025;29;20062;-80
2024/01/18 13:54:47;;;;;;;7.13;4.50;;;2.00;93.10;;;;;;4099074;29;20087;-80
2024/01/18 13:56:50;;;;;;;5.05;3.67;;;2.00;93.00;;;;;;4098451;29;20398;-78
2024/01/18 13:58:52;;;;;;;6.38;4.07;;;2.00;93.00;;;;;;4099058;29;20063;-79
2024/01/18 14:00:53;;;;;;;6.57;4.20;;;2.00;92.40;;;;;;4098717;29;20066;-80
2024/01/18 14:02:55;;;;;;;6.63;4.63;;;2.00;92.60;;;;;;4098136;29;20057;-79
2024/01/18 14:04:57;;;;;;;6.80;4.53;;;1.90;92.90;;;;;;4098395;29;20055;-80
2024/01/18 14:06:59;;;;;;;7.85;4.93;;;1.90;92.50;;;;;;4098933;29;20114;-82
2024/01/18 14:09:02;;;;;;;7.50;5.35;;;1.90;92.80;;;;;;4099010;29;20134;-79
2024/01/18 14:11:04;;;;;;;7.13;5.05;;;1.80;93.20;;;;;;4102842;29;20224;-79
2024/01/18 14:13:07;;;;;;;7.55;5.10;;;1.90;92.60;;;;;;4103187;29;20054;-80
2024/01/18 14:15:09;;;;;;;8.48;5.53;;;1.90;92.90;;;;;;4104037;29;20055;-79
2024/01/18 14:17:11;;;;;;;7.80;5.35;;;1.80;92.50;;;;;;4104167;29;20091;-80
2024/01/18 14:19:13;;;;;;;8.25;6.03;;;1.90;92.40;;;;;;4099870;29;20491;-79
2024/01/18 14:21:15;;;;;;;9.57;6.22;;;1.80;92.40;;;;;;4100355;29;20110;-78
2024/01/18 14:23:16;;;;;;;9.48;6.38;;;1.80;92.40;;;;;;4099097;29;20449;-80
2024/01/18 14:25:18;;;;;;;10.48;6.32;;;1.70;92.50;;;;;;4098435;28;20059;-78
2024/01/18 14:27:19;;;;;;;9.77;6.50;;;1.70;93.00;;;;;;4098966;29;20050;-79
2024/01/18 14:29:22;;;;;;;9.35;6.28;;;1.70;92.50;;;;;;4099000;29;20098;-79
2024/01/18 14:31:24;;;;;;;10.63;6.82;;;1.60;92.30;;;;;;4096659;29;20051;-80
2024/01/18 14:33:25;;;;;;;9.65;7.15;;;1.60;92.40;;;;;;4098922;29;20055;-79
2024/01/18 14:35:26;;;;;;;11.45;6.90;;;1.70;92.70;;;;;;4098639;29;20044;-80
2024/01/18 14:37:28;;;;;;;9.43;6.82;;;1.70;92.50;;;;;;4098916;29;20099;-81
2024/01/18 14:39:30;;;;;;;11.98;7.55;;;1.70;92.40;;;;;;4098904;29;20540;-81
2024/01/18 14:41:32;;;;;;;11.15;7.00;;;1.70;92.60;;;;;;4098742;29;20382;-80
2024/01/18 14:43:34;;;;;;;11.63;7.28;;;1.70;92.10;;;;;;4098569;29;20073;-79
2024/01/18 14:45:37;;;;;;;9.57;6.80;;;1.70;91.90;;;;;;4098982;29;20059;-80
2024/01/18 14:47:39;;;;;;;13.05;7.85;;;1.70;92.30;;;;;;4098721;29;20386;-81
2024/01/18 14:49:42;;;;;;;12.52;8.00;;;1.60;92.40;;;;;;4098730;29;20094;-80
2024/01/18 14:51:44;;;;;;;12.30;8.55;;;1.40;92.70;;;;;;4098677;29;20047;-80
2024/01/18 14:53:46;;;;;;;12.48;8.18;;;1.30;92.90;;;;;;4099419;29;20079;-78
2024/01/18 14:55:48;;;;;;;11.93;8.05;;;1.30;92.30;;;;;;4099176;29;20114;-77
2024/01/18 14:57:52;;;;;;;12.43;7.88;;;1.30;92.30;;;;;;4099284;29;20055;-80
2024/01/18 14:59:54;;;;;;;12.90;8.48;;;1.20;92.50;;;;;;4099030;29;20470;-80
2024/01/18 15:01:56;;;;;;;12.50;8.20;;;1.30;92.40;;;;;;4098836;29;20485;-80
2024/01/18 15:03:58;;;;;;;13.35;8.35;;;1.30;92.20;;;;;;4098779;29;20059;-81
2024/01/18 15:06:00;;;;;;;12.55;7.93;;;1.10;92.50;;;;;;4099269;29;20055;-80
2024/01/18 15:08:03;;;;;;;13.00;7.85;;;1.10;92.70;;;;;;4098783;29;20046;-79
2024/01/18 15:10:06;;;;;;;11.98;8.10;;;1.20;92.60;;;;;;4101517;29;20471;-80
2024/01/18 15:12:08;;;;;;;14.70;8.27;;;1.20;92.30;;;;;;4106050;29;20051;-79
2024/01/18 15:14:10;;;;;;;12.73;8.75;;;1.00;92.40;;;;;;4107049;29;20051;-82
2024/01/18 15:16:12;;;;;;;13.27;8.13;;;0.90;92.70;;;;;;4106965;29;20511;-80
2024/01/18 15:18:15;;;;;;;13.07;8.55;;;1.00;92.80;;;;;;4107259;29;20055;-79
2024/01/18 15:20:17;;;;;;;13.35;9.13;;;0.90;92.70;;;;;;4101336;29;20118;-80
2024/01/18 15:22:19;;;;;;;13.93;8.95;;;0.90;93.00;;;;;;4098977;29;20456;-79
2024/01/18 15:24:21;;;;;;;12.40;8.50;;;0.80;93.30;;;;;;4098388;29;20114;-80
2024/01/18 15:26:23;;;;;;;14.23;8.43;;;0.90;93.40;;;;;;4098026;29;20055;-79
2024/01/18 15:28:25;;;;;;;12.90;8.50;;;1.00;93.30;;;;;;4098564;29;20059;-79
2024/01/18 15:30:27;;;;;;;15.23;8.85;;;1.10;92.80;;;;;;4097993;29;20082;-80
2024/01/18 15:32:29;;;;;;;12.13;8.10;;;1.10;93.00;;;;;;4096052;29;20051;-79
2024/01/18 15:34:32;;;;;;;12.00;8.20;;;1.10;92.60;;;;;;4097914;29;20420;-81
2024/01/18 15:36:39;;;;;;;14.52;8.95;;;1.10;92.70;;;;;;4097761;28;20051;-80
2024/01/18 15:38:41;;;;;;;13.68;8.63;;;1.00;92.70;;;;;;4101456;29;20078;-78
2024/01/18 15:40:43;;;;;;;15.23;9.18;;;1.10;92.90;;;;;;4101066;29;20055;-78
2024/01/18 15:42:45;;;;;;;14.25;9.25;;;1.00;92.80;;;;;;4101481;29;20114;-79
2024/01/18 15:44:47;;;;;;;13.98;8.63;;;0.90;93.10;;;;;;4101088;29;20059;-80
2024/01/18 15:46:54;;;;;;;12.80;8.55;;;1.00;93.20;;;;;;4101224;29;20118;-81
2024/01/18 15:48:57;;;;;;;15.32;9.38;;;1.00;93.40;;;;;;4101445;29;20084;-81
2024/01/18 15:51:02;;;;;;;14.30;8.88;;;1.10;93.00;;;;;;4101427;29;20055;-79
2024/01/18 15:53:04;;;;;;;15.55;9.45;;;1.10;93.20;;;;;;4100884;29;20054;-81
2024/01/18 15:55:08;;;;;;;15.65;9.52;;;1.00;93.30;;;;;;4099629;29;20062;-80
2024/01/18 15:57:10;;;;;;;16.60;10.35;;;1.00;93.50;;;;;;4099977;29;20131;-80
2024/01/18 15:59:11;;;;;;;14.85;9.20;;;1.00;93.50;;;;;;4100019;29;20063;-80
2024/01/18 16:01:13;;;;;;;15.63;10.27;;;1.10;93.10;;;;;;4100313;29;20059;-79
2024/01/18 16:03:15;;;;;;;14.55;10.07;;;1.10;92.90;;;;;;4100966;29;20047;-81
2024/01/18 16:05:19;;;;;;;15.07;9.27;;;1.20;93.10;;;;;;4097116;28;20130;-79
2024/01/18 16:07:21;;;;;;;15.38;9.80;;;1.00;93.00;;;;;;4097761;29;20055;-80
2024/01/18 16:09:25;;;;;;;18.25;10.65;;;1.00;93.20;;;;;;4099285;29;20055;-80
2024/01/18 16:11:26;;;;;;;15.98;10.35;;;1.10;93.20;;;;;;4098882;29;20485;-81
2024/01/18 16:13:27;;;;;;;17.42;10.57;;;1.10;93.20;;;;;;4100399;29;20480;-81
2024/01/18 16:15:29;;;;;;;15.80;10.15;;;1.10;92.80;;;;;;4100039;29;20055;-81
2024/01/18 16:17:31;;;;;;;15.50;10.02;;;1.10;92.90;;;;;;4100210;29;20087;-80
2024/01/18 16:19:33;;;;;;;17.33;10.52;;;1.10;92.80;;;;;;4084049;29;20454;-81
2024/01/18 16:21:36;;;;;;;16.23;11.00;;;1.10;92.80;;;;;;4099835;29;20098;-80
2024/01/18 16:23:39;;;;;;;16.55;10.85;;;1.20;92.70;;;;;;4099366;29;20114;-82
2024/01/18 16:25:41;;;;;;;16.63;10.40;;;1.20;92.80;;;;;;4100174;29;20082;-81
2024/01/18 16:27:43;;;;;;;15.82;10.77;;;1.20;92.80;;;;;;4099301;29;20082;-81
2024/01/18 16:29:46;;;;;;;16.70;11.10;;;1.20;92.90;;;;;;4100003;29;20125;-80
2024/01/18 16:31:48;;;;;;;17.30;11.10;;;1.20;92.80;;;;;;4097414;29;20047;-79
2024/01/18 16:33:51;;;;;;;17.45;11.45;;;1.20;92.80;;;;;;4099276;29;20078;-81
2024/01/18 16:35:53;;;;;;;20.83;12.55;;;1.20;92.60;;;;;;4099200;29;20074;-81
2024/01/18 16:37:59;;;;;;;19.38;11.35;;;1.30;92.70;;;;;;4099983;29;20110;-81
2024/01/18 16:40:03;;;;;;;19.40;11.60;;;1.30;92.40;;;;;;4100149;29;20061;-81
2024/01/18 16:42:05;;;;;;;19.02;12.40;;;1.30;92.30;;;;;;4100114;29;20051;-81
2024/01/18 16:44:07;;;;;;;20.25;12.32;;;1.30;92.40;;;;;;4099362;29;20051;-79